Time;durP1;ratioP1;P1;durP2;ratioP2;P2;SDS_P1;SDS_P2;PMS_P1;PMS_P2;Temp;Humidity;BMP_temperature;BMP_pressure;BME280_temperature;BME280_humidity;BME280_pressure;Samples;Min_cycle;Max_cycle;Signal;HPM_P1;HPM_P2
2022/05/22 00:02:14;;;;;;;9.15;1.85;;;;;;;11.53;91.37;101589.31;5030505;28;20674;-43
2022/05/22 00:04:40;;;;;;;13.15;2.22;;;;;;;11.52;91.42;101579.53;5030312;28;20176;-44
2022/05/22 00:07:06;;;;;;;10.35;2.08;;;;;;;11.52;91.90;101586.69;5030482;28;20663;-44
2022/05/22 00:09:33;;;;;;;8.65;2.15;;;;;;;11.44;92.43;101589.59;5030856;28;20160;-44
2022/05/22 00:11:58;;;;;;;9.98;2.00;;;;;;;11.51;92.48;101584.94;5030521;28;20214;-43
2022/05/22 00:14:25;;;;;;;13.30;2.40;;;;;;;11.46;92.43;101577.03;5028484;28;20172;-43
2022/05/22 00:16:52;;;;;;;7.72;1.80;;;;;;;11.48;92.87;101571.63;5029155;28;20179;-43
2022/05/22 00:19:20;;;;;;;7.50;1.90;;;;;;;11.38;93.07;101573.69;5030308;28;20298;-48
2022/05/22 00:21:46;;;;;;;13.32;2.45;;;;;;;11.45;93.45;101571.69;5029341;28;20655;-47
2022/05/22 00:24:16;;;;;;;17.45;2.33;;;;;;;11.40;93.77;101574.53;5029804;28;20254;-47
2022/05/22 00:26:44;;;;;;;12.65;2.90;;;;;;;11.38;93.88;101570.13;5029801;28;20666;-48
2022/05/22 00:29:09;;;;;;;7.30;1.88;;;;;;;11.49;94.24;101576.91;5029077;28;20180;-48
2022/05/22 00:31:35;;;;;;;11.63;2.15;;;;;;;11.45;94.45;101577.94;5030179;28;20302;-46
2022/05/22 00:34:01;;;;;;;13.45;2.17;;;;;;;11.44;94.43;101573.50;5029929;28;20180;-48
2022/05/22 00:36:26;;;;;;;13.65;2.45;;;;;;;11.49;94.62;101570.69;5029021;28;20172;-48
2022/05/22 00:38:52;;;;;;;15.82;2.65;;;;;;;11.50;94.92;101569.75;5028905;28;20217;-45
2022/05/22 00:41:18;;;;;;;17.30;2.80;;;;;;;11.41;94.88;101578.94;5028490;28;20350;-47
2022/05/22 00:43:52;;;;;;;10.00;2.55;;;;;;;11.50;94.79;101584.06;5028583;28;20168;-47
2022/05/22 00:46:20;;;;;;;12.45;2.47;;;;;;;11.53;94.62;101575.03;5030062;28;20167;-48
2022/05/22 00:48:49;;;;;;;11.50;2.45;;;;;;;11.34;95.13;101583.63;5030222;28;20176;-47
2022/05/22 00:51:21;;;;;;;11.30;2.40;;;;;;;11.50;94.89;101585.84;5029822;28;20172;-46
2022/05/22 00:54:00;;;;;;;12.38;2.40;;;;;;;11.37;95.33;101573.72;5029542;28;20207;-47
2022/05/22 00:56:38;;;;;;;10.65;2.67;;;;;;;11.43;95.76;101584.28;5030039;28;20178;-47
2022/05/22 00:59:12;;;;;;;11.65;2.30;;;;;;;11.53;95.71;101583.09;5028504;28;20179;-47
2022/05/22 01:01:39;;;;;;;8.98;2.33;;;;;;;11.54;95.56;101564.28;5029959;28;20187;-49
2022/05/22 01:04:10;;;;;;;16.55;2.53;;;;;;;11.52;95.64;101567.91;5029118;28;20263;-46
2022/05/22 01:06:41;;;;;;;14.48;2.80;;;;;;;11.52;95.36;101575.94;5028626;28;20234;-46
2022/05/22 01:09:13;;;;;;;12.95;3.33;;;;;;;11.46;95.58;101573.47;5028520;28;20288;-46
2022/05/22 01:11:39;;;;;;;13.82;2.50;;;;;;;11.38;95.81;101559.41;5028595;28;20734;-47
2022/05/22 01:14:13;;;;;;;10.93;2.38;;;;;;;11.47;95.64;101570.72;5029467;28;20262;-48
2022/05/22 01:16:40;;;;;;;8.52;2.40;;;;;;;11.37;95.49;101573.72;5028051;28;20373;-46
2022/05/22 01:19:15;;;;;;;12.80;2.50;;;;;;;11.33;95.92;101564.91;5029862;28;20737;-47
2022/05/22 01:22:07;;;;;;;11.95;2.40;;;;;;;11.30;96.05;101570.34;5017914;28;20208;-48
2022/05/22 01:24:35;;;;;;;11.43;2.28;;;;;;;11.27;96.31;101565.94;5008078;28;20185;-49
2022/05/22 01:27:04;;;;;;;10.55;2.15;;;;;;;11.32;96.43;101572.06;4993483;28;20227;-46
2022/05/22 01:29:44;;;;;;;12.05;2.45;;;;;;;11.36;96.21;101572.84;5013230;28;20184;-48
2022/05/22 01:32:10;;;;;;;7.93;1.95;;;;;;;11.37;96.06;101566.56;5012237;28;20663;-47
2022/05/22 01:34:36;;;;;;;15.13;2.30;;;;;;;11.25;96.18;101583.03;5011263;28;20192;-46
2022/05/22 01:37:02;;;;;;;11.15;2.22;;;;;;;11.16;96.40;101581.47;5012394;28;20183;-47
2022/05/22 01:39:28;;;;;;;10.82;2.30;;;;;;;11.22;96.36;101575.06;5011621;28;20220;-47
2022/05/22 01:41:56;;;;;;;12.48;2.42;;;;;;;11.18;96.66;101576.09;5012023;28;20197;-47
2022/05/22 01:44:22;;;;;;;8.85;2.58;;;;;;;11.24;96.72;101559.78;5011056;28;20632;-47
2022/05/22 01:46:47;;;;;;;14.18;2.35;;;;;;;11.13;96.53;101581.59;5012059;28;20185;-48
2022/05/22 01:49:13;;;;;;;13.13;2.78;;;;;;;11.14;96.59;101580.66;5013091;28;20632;-48
2022/05/22 01:51:41;;;;;;;11.00;2.40;;;;;;;11.07;96.80;101574.56;5013138;28;20280;-47
2022/05/22 01:54:07;;;;;;;14.25;2.70;;;;;;;11.16;97.05;101577.94;5011353;28;20173;-47
2022/05/22 01:56:36;;;;;;;11.63;2.35;;;;;;;11.17;96.89;101572.50;5011781;28;20172;-47
2022/05/22 01:59:04;;;;;;;10.32;2.53;;;;;;;11.08;97.22;101573.63;5011529;28;20678;-48
2022/05/22 02:01:34;;;;;;;10.05;2.13;;;;;;;11.20;97.23;101567.06;5011656;28;20239;-47
2022/05/22 02:04:04;;;;;;;9.18;2.25;;;;;;;11.18;96.94;101573.41;5010847;28;20231;-48
2022/05/22 02:06:32;;;;;;;12.75;2.70;;;;;;;11.17;97.22;101579.66;5011945;28;20686;-47
2022/05/22 02:09:06;;;;;;;11.63;2.28;;;;;;;11.16;97.25;101577.94;5011397;28;20222;-50
2022/05/22 02:11:35;;;;;;;9.05;2.70;;;;;;;11.18;97.18;101576.09;5011058;28;20197;-49
2022/05/22 02:14:01;;;;;;;10.38;2.08;;;;;;;11.18;97.07;101584.13;5010933;28;20771;-50
2022/05/22 02:16:26;;;;;;;10.05;2.33;;;;;;;11.16;96.95;101576.13;5011792;28;20173;-48
2022/05/22 02:18:52;;;;;;;15.65;3.17;;;;;;;11.01;97.33;101574.75;5012826;28;20544;-49
2022/05/22 02:21:17;;;;;;;13.27;2.55;;;;;;;10.99;97.99;101573.91;5011246;28;20209;-50
2022/05/22 02:23:43;;;;;;;9.50;2.13;;;;;;;11.09;98.30;101575.41;5011270;28;20568;-47
2022/05/22 02:26:10;;;;;;;12.98;2.60;;;;;;;11.02;98.49;101568.47;5011060;28;20180;-49
2022/05/22 02:28:38;;;;;;;14.75;2.67;;;;;;;10.99;98.37;101576.59;5025029;28;20195;-50
2022/05/22 02:31:04;;;;;;;11.13;2.38;;;;;;;11.07;99.04;101584.44;5031205;28;20172;-49
2022/05/22 02:33:31;;;;;;;9.90;2.40;;;;;;;11.09;98.96;101578.09;5032022;28;20210;-50
2022/05/22 02:36:13;;;;;;;6.90;1.95;;;;;;;11.10;99.16;101574.47;5031199;28;20191;-48
2022/05/22 02:38:39;;;;;;;12.90;2.80;;;;;;;11.10;98.83;101578.97;5031279;28;20188;-48
2022/05/22 02:41:15;;;;;;;12.23;2.90;;;;;;;10.95;99.31;101574.03;5014749;28;20199;-49
2022/05/22 02:43:43;;;;;;;12.32;2.95;;;;;;;10.99;99.37;101573.91;5030534;28;20175;-50
2022/05/22 02:46:14;;;;;;;17.02;2.95;;;;;;;10.94;99.44;101573.16;5030761;28;20291;-49
2022/05/22 02:48:41;;;;;;;13.18;2.63;;;;;;;10.92;99.80;101570.50;5032191;28;20168;-49
2022/05/22 02:51:11;;;;;;;13.90;3.08;;;;;;;10.95;99.79;101569.53;5030313;28;20557;-48
2022/05/22 02:53:37;;;;;;;14.13;3.35;;;;;;;10.85;100.00;101576.09;5030307;28;20192;-49
2022/05/22 02:56:23;;;;;;;9.52;2.60;;;;;;;10.84;100.00;101568.97;5032161;28;20182;-48
2022/05/22 02:59:13;;;;;;;11.68;2.65;;;;;;;10.82;100.00;101569.03;5029890;28;20204;-49
2022/05/22 03:02:02;;;;;;;9.68;2.63;;;;;;;10.86;100.00;101569.81;4994239;28;20207;-49
2022/05/22 03:04:27;;;;;;;15.73;2.88;;;;;;;10.88;100.00;101563.47;5029743;28;20176;-49
2022/05/22 03:07:00;;;;;;;10.75;2.35;;;;;;;10.91;100.00;101566.09;5030101;28;20187;-50
2022/05/22 03:09:25;;;;;;;12.63;2.75;;;;;;;10.92;100.00;101559.78;5029986;28;20168;-49
2022/05/22 03:11:51;;;;;;;8.88;1.90;;;;;;;11.07;100.00;101552.25;5031065;28;20191;-48
2022/05/22 03:14:16;;;;;;;15.93;3.60;;;;;;;11.02;100.00;101562.22;5030890;28;20176;-48
2022/05/22 03:16:42;;;;;;;15.63;3.13;;;;;;;10.92;100.00;101558.91;5029591;28;20222;-48
2022/05/22 03:19:24;;;;;;;10.25;2.58;;;;;;;11.00;100.00;101562.28;5028218;28;20192;-47
2022/05/22 03:21:51;;;;;;;12.85;2.90;;;;;;;10.87;100.00;101569.78;5020353;28;20263;-49
2022/05/22 03:24:17;;;;;;;15.63;3.60;;;;;;;10.89;100.00;101561.69;5009031;28;20299;-49
2022/05/22 03:26:52;;;;;;;11.45;2.85;;;;;;;10.95;100.00;101555.28;4995019;28;20179;-51
2022/05/22 03:29:18;;;;;;;17.65;4.18;;;;;;;10.93;100.00;101566.03;5027169;28;20202;-46
2022/05/22 03:31:44;;;;;;;9.38;2.97;;;;;;;11.05;100.00;101557.66;5027842;28;20647;-48
2022/05/22 03:34:10;;;;;;;12.38;3.15;;;;;;;10.89;100.00;101564.38;5009107;28;20164;-49
2022/05/22 03:36:41;;;;;;;14.23;3.40;;;;;;;10.98;100.00;101564.13;5009725;28;20177;-49
2022/05/22 03:39:08;;;;;;;17.70;3.45;;;;;;;10.97;100.00;101553.44;5009732;28;20212;-49
2022/05/22 03:41:37;;;;;;;13.05;3.08;;;;;;;11.02;100.00;101563.13;5009525;28;20232;-49
2022/05/22 03:44:03;;;;;;;15.70;3.53;;;;;;;10.99;100.00;101555.13;5008892;28;20191;-48
2022/05/22 03:46:36;;;;;;;9.90;2.53;;;;;;;11.12;100.00;101547.63;5009187;28;20188;-47
2022/05/22 03:49:02;;;;;;;11.50;2.88;;;;;;;11.08;100.00;101554.88;5009598;28;20619;-48
2022/05/22 03:51:34;;;;;;;8.57;2.30;;;;;;;11.15;100.00;101552.91;5009279;28;20197;-48
2022/05/22 03:54:00;;;;;;;11.75;3.17;;;;;;;11.16;100.00;101567.19;5008769;28;20291;-49
2022/05/22 03:56:32;;;;;;;14.18;3.20;;;;;;;11.21;100.00;101549.16;5010871;28;20547;-48
2022/05/22 03:58:58;;;;;;;12.75;3.78;;;;;;;11.15;100.00;101560.97;5009627;28;20168;-49
2022/05/22 04:01:23;;;;;;;12.68;3.25;;;;;;;11.19;100.00;101556.38;5009491;28;20263;-47
2022/05/22 04:03:57;;;;;;;14.02;3.00;;;;;;;11.14;100.00;101549.34;5008958;28;20283;-49
2022/05/22 04:06:24;;;;;;;15.10;3.60;;;;;;;11.18;100.00;101558.19;5009278;28;20184;-48
2022/05/22 04:08:50;;;;;;;16.88;3.30;;;;;;;11.07;100.00;101566.53;4993349;28;20191;-47
2022/05/22 04:11:18;;;;;;;13.70;3.22;;;;;;;11.25;100.00;101559.75;5009383;28;20196;-49
2022/05/22 04:13:46;;;;;;;12.15;2.80;;;;;;;11.31;100.00;101556.03;5008938;28;20205;-48
2022/05/22 04:16:11;;;;;;;12.82;3.42;;;;;;;11.30;100.00;101555.16;5009594;28;20493;-47
2022/05/22 04:18:37;;;;;;;12.88;3.15;;;;;;;11.28;100.00;101554.31;5009107;28;20195;-49
2022/05/22 04:21:04;;;;;;;19.75;3.55;;;;;;;11.32;100.00;101561.31;5009152;28;20208;-48
2022/05/22 04:26:33;;;;;;;10.82;3.08;;;;;;;11.31;100.00;101562.25;5009277;28;20536;-48
2022/05/22 04:29:00;;;;;;;9.05;3.42;;;;;;;11.37;100.00;101568.34;5024643;28;20541;-50
2022/05/22 04:31:28;;;;;;;10.00;3.13;;;;;;;11.35;100.00;101571.09;5028640;28;20187;-49
2022/05/22 04:34:06;;;;;;;11.95;3.20;;;;;;;11.36;100.00;101575.53;5028543;28;20187;-48
2022/05/22 04:36:33;;;;;;;11.45;2.97;;;;;;;11.45;100.00;101577.06;5028737;28;20709;-49
2022/05/22 04:38:59;;;;;;;11.77;2.92;;;;;;;11.34;100.00;101572.00;5030202;28;20176;-48
2022/05/22 04:41:24;;;;;;;14.90;3.30;;;;;;;11.31;100.00;101572.13;5028561;28;20255;-47
2022/05/22 04:43:50;;;;;;;11.25;3.80;;;;;;;11.23;100.00;101574.13;5028105;28;20715;-48
2022/05/22 04:46:15;;;;;;;12.07;3.13;;;;;;;11.25;100.00;101583.03;5028914;28;20705;-49
2022/05/22 04:48:42;;;;;;;14.93;3.78;;;;;;;11.07;100.00;101585.31;5028549;28;20172;-47
2022/05/22 04:51:09;;;;;;;10.93;2.95;;;;;;;11.11;100.00;101586.97;5028712;28;20258;-47
2022/05/22 04:53:50;;;;;;;17.85;3.95;;;;;;;11.08;100.00;101584.38;5028095;28;20187;-49
2022/05/22 04:56:39;;;;;;;17.58;3.88;;;;;;;11.12;100.00;101582.50;5024077;28;20195;-47
2022/05/22 04:59:16;;;;;;;10.80;3.28;;;;;;;11.20;100.00;101571.56;5028712;28;20183;-49
2022/05/22 05:01:42;;;;;;;14.13;3.33;;;;;;;11.41;100.00;101567.34;5029228;28;20722;-47
2022/05/22 05:04:30;;;;;;;10.85;2.70;;;;;;;11.34;100.00;101569.34;5033456;28;20195;-48
2022/05/22 05:07:08;;;;;;;8.82;2.70;;;;;;;11.36;100.00;101570.16;5032454;28;20198;-48
2022/05/22 05:09:45;;;;;;;13.43;3.50;;;;;;;11.30;100.00;101559.63;5032815;28;20188;-49
2022/05/22 05:12:18;;;;;;;15.43;3.63;;;;;;;11.36;100.00;101571.97;5032868;28;20281;-49
2022/05/22 05:14:44;;;;;;;13.32;3.47;;;;;;;11.38;100.00;101562.94;5033059;28;20229;-47
2022/05/22 05:17:12;;;;;;;11.88;2.95;;;;;;;11.36;100.00;101558.56;5032424;28;20172;-48
2022/05/22 05:19:38;;;;;;;15.82;3.95;;;;;;;11.49;100.00;101565.31;5016008;28;20196;-48
2022/05/22 05:22:05;;;;;;;11.95;3.70;;;;;;;11.45;100.00;101569.00;5033597;28;20257;-48
2022/05/22 05:24:30;;;;;;;12.30;3.13;;;;;;;11.49;100.00;101574.25;5015402;28;20188;-48
2022/05/22 05:26:56;;;;;;;14.40;3.10;;;;;;;11.38;100.00;101579.06;5033635;28;20564;-47
2022/05/22 05:29:22;;;;;;;10.50;2.63;;;;;;;11.45;100.00;101583.31;5033667;28;20631;-47
2022/05/22 05:31:48;;;;;;;15.38;3.50;;;;;;;11.47;100.00;101583.28;5033487;28;20274;-49
2022/05/22 05:34:15;;;;;;;11.55;2.60;;;;;;;11.41;100.00;101591.50;5031640;28;20628;-47
2022/05/22 05:37:01;;;;;;;10.10;2.55;;;;;;;11.42;100.00;101590.59;5021789;28;20242;-48
2022/05/22 05:39:32;;;;;;;6.53;2.45;;;;;;;11.55;100.00;101592.84;5033271;28;20566;-49
2022/05/22 05:42:09;;;;;;;11.85;2.90;;;;;;;11.50;100.00;101586.75;5032292;28;20216;-47
2022/05/22 05:44:35;;;;;;;12.20;2.70;;;;;;;11.70;100.00;101579.91;5031272;28;20258;-47
2022/05/22 05:47:25;;;;;;;10.55;2.65;;;;;;;11.67;100.00;101593.41;5032330;28;20271;-46
2022/05/22 05:50:09;;;;;;;12.63;2.65;;;;;;;11.41;100.00;101584.31;5032974;28;20191;-46
2022/05/22 05:53:07;;;;;;;12.40;2.75;;;;;;;11.61;100.00;101580.16;5024884;28;20207;-47
2022/05/22 05:55:44;;;;;;;14.85;2.80;;;;;;;11.64;99.92;101586.31;5033391;28;20194;-46
2022/05/22 05:58:19;;;;;;;9.15;2.80;;;;;;;11.60;99.70;101581.09;5033019;28;20209;-47
2022/05/22 06:00:50;;;;;;;8.40;2.78;;;;;;;11.68;100.00;101582.63;5031399;28;20211;-47
2022/05/22 06:03:16;;;;;;;10.48;2.70;;;;;;;11.51;99.90;101572.38;5032083;28;20196;-46
2022/05/22 06:05:42;;;;;;;13.23;3.22;;;;;;;11.54;100.00;101571.41;5031582;28;20271;-47
2022/05/22 06:08:12;;;;;;;12.25;2.95;;;;;;;11.70;100.00;101587.94;5031610;28;20549;-46
2022/05/22 06:10:38;;;;;;;10.43;3.10;;;;;;;11.79;99.94;101586.78;5031283;28;20251;-46
2022/05/22 06:13:12;;;;;;;11.45;2.65;;;;;;;11.88;99.15;101573.97;5029629;28;20619;-48
2022/05/22 06:15:37;;;;;;;16.00;3.05;;;;;;;11.83;99.08;101564.25;5031334;28;20230;-47
2022/05/22 06:18:03;;;;;;;11.30;2.50;;;;;;;11.86;98.66;101562.38;5032676;28;20247;-48
2022/05/22 06:20:29;;;;;;;14.38;2.83;;;;;;;11.85;98.72;101567.78;5031341;28;20200;-48
2022/05/22 06:22:57;;;;;;;8.95;2.50;;;;;;;11.67;99.08;101564.75;5030628;28;20253;-49
2022/05/22 06:25:55;;;;;;;12.85;2.65;;;;;;;11.94;98.83;101568.41;5010809;28;20183;-47
2022/05/22 06:28:41;;;;;;;12.80;3.10;;;;;;;11.96;98.71;101573.75;5031874;28;20192;-47
2022/05/22 06:31:28;;;;;;;17.60;3.33;;;;;;;12.07;98.16;101562.63;5029453;28;20282;-49
2022/05/22 06:34:12;;;;;;;8.40;2.75;;;;;;;12.16;97.61;101562.34;5031697;28;20203;-48
2022/05/22 06:36:51;;;;;;;13.40;3.28;;;;;;;12.26;97.00;101557.53;5032713;28;20518;-48
2022/05/22 06:39:50;;;;;;;7.72;2.30;;;;;;;12.13;97.24;101559.75;5023963;28;20778;-47
2022/05/22 06:42:34;;;;;;;12.25;2.88;;;;;;;12.33;97.19;101556.38;5012193;28;20581;-47
2022/05/22 06:45:13;;;;;;;10.63;2.53;;;;;;;12.31;96.46;101569.00;5012145;28;20263;-48
2022/05/22 06:48:05;;;;;;;12.63;4.00;;;;;;;12.56;95.70;101572.59;5009315;28;20602;-48
2022/05/22 06:50:50;;;;;;;11.80;4.82;;;;;;;12.62;94.79;101573.34;5011850;28;20718;-49
2022/05/22 06:53:27;;;;;;;9.85;4.05;;;;;;;12.68;93.85;101573.09;5010028;28;20251;-49
2022/05/22 06:56:11;;;;;;;13.93;3.47;;;;;;;12.55;93.63;101573.56;5012797;28;20199;-47
2022/05/22 06:58:57;;;;;;;11.35;2.67;;;;;;;12.39;93.89;101576.81;5007372;28;20243;-49
2022/05/22 07:01:24;;;;;;;12.27;2.55;;;;;;;12.59;93.86;101579.69;5010414;28;20224;-48
2022/05/22 07:03:58;;;;;;;10.98;2.47;;;;;;;12.69;93.61;101570.38;5009705;28;20464;-48
2022/05/22 07:06:39;;;;;;;9.18;2.00;;;;;;;12.75;92.66;101575.53;5010177;28;20196;-47
2022/05/22 07:09:17;;;;;;;6.88;2.10;;;;;;;12.73;92.05;101569.34;5009017;28;20258;-47
2022/05/22 07:11:47;;;;;;;8.32;2.05;;;;;;;12.85;92.16;101575.22;5010062;28;20223;-47
2022/05/22 07:14:33;;;;;;;11.82;2.47;;;;;;;12.65;92.27;101571.41;5008743;28;20704;-48
2022/05/22 07:17:10;;;;;;;12.30;2.42;;;;;;;12.66;92.25;101573.19;5024811;28;20184;-47
2022/05/22 07:19:53;;;;;;;13.45;2.50;;;;;;;12.70;91.98;101568.56;5024619;28;20196;-48
2022/05/22 07:22:54;;;;;;;9.07;2.28;;;;;;;12.52;91.31;101579.00;4967213;28;20320;-47
2022/05/22 07:25:53;;;;;;;8.35;2.70;;;;;;;12.74;90.66;101571.06;4976329;28;20193;-46
2022/05/22 07:28:37;;;;;;;8.60;2.20;;;;;;;12.75;90.62;101564.78;5008427;28;20317;-46
2022/05/22 07:31:29;;;;;;;9.98;2.58;;;;;;;13.03;90.18;101568.28;4986445;28;20222;-47
2022/05/22 07:34:06;;;;;;;7.10;2.03;;;;;;;13.19;89.75;101570.34;5010022;28;20258;-46
2022/05/22 07:37:02;;;;;;;6.53;2.10;;;;;;;13.49;87.88;101567.47;5009878;28;20680;-49
2022/05/22 07:39:37;;;;;;;8.55;1.77;;;;;;;13.56;86.85;101571.69;5010309;28;20224;-47
2022/05/22 07:42:28;;;;;;;9.95;2.38;;;;;;;13.49;85.35;101570.19;5002161;28;20243;-47
2022/05/22 07:45:17;;;;;;;7.57;1.80;;;;;;;13.88;85.08;101566.81;5006516;28;20584;-49
2022/05/22 07:47:53;;;;;;;8.80;2.53;;;;;;;14.06;85.56;101570.63;5009567;28;20243;-46
2022/05/22 07:50:37;;;;;;;7.00;1.73;;;;;;;13.81;84.18;101573.41;5010067;28;20235;-47
2022/05/22 07:53:13;;;;;;;7.47;1.63;;;;;;;13.94;83.37;101580.06;5010580;28;20200;-45
2022/05/22 07:55:44;;;;;;;8.30;1.60;;;;;;;14.21;81.83;101571.78;5011458;28;20169;-47
2022/05/22 07:58:36;;;;;;;6.20;1.67;;;;;;;14.07;81.86;101576.88;5010893;28;20595;-48
2022/05/22 08:01:20;;;;;;;6.30;2.00;;;;;;;14.40;82.56;101577.28;5010421;28;20726;-47
2022/05/22 08:04:15;;;;;;;8.57;1.80;;;;;;;14.45;80.50;101560.91;5010335;28;20196;-47
2022/05/22 08:07:03;;;;;;;6.75;1.70;;;;;;;14.69;80.12;101575.19;5010264;28;20185;-47
2022/05/22 08:09:48;;;;;;;8.90;2.70;;;;;;;14.86;79.02;101566.34;5009225;28;20610;-48
2022/05/22 08:12:13;;;;;;;7.78;1.40;;;;;;;14.96;77.96;101573.09;5009114;28;20229;-47
2022/05/22 08:14:40;;;;;;;7.25;1.75;;;;;;;14.82;76.92;101563.81;5009083;28;20187;-46
2022/05/22 08:17:05;;;;;;;7.13;1.73;;;;;;;14.71;76.89;101563.38;5010367;28;20179;-47
2022/05/22 08:19:32;;;;;;;6.30;1.70;;;;;;;14.79;78.97;101563.06;5009137;28;20179;-47
2022/05/22 08:22:11;;;;;;;7.95;1.83;;;;;;;14.88;78.62;101565.34;5008472;28;20197;-47
2022/05/22 08:24:57;;;;;;;6.80;1.65;;;;;;;15.19;76.01;101548.63;4995827;28;20798;-49
2022/05/22 08:27:27;;;;;;;5.45;1.35;;;;;;;15.45;76.27;101546.53;5011653;28;20241;-48
2022/05/22 08:29:56;;;;;;;9.18;2.00;;;;;;;15.19;75.84;101540.53;5028077;28;20179;-48
2022/05/22 08:32:27;;;;;;;10.60;2.13;;;;;;;15.34;74.32;101547.03;5016835;28;20251;-48
2022/05/22 08:34:54;;;;;;;9.05;1.70;;;;;;;15.33;75.47;101547.16;4991505;28;20180;-48
2022/05/22 08:37:20;;;;;;;6.57;1.65;;;;;;;15.34;75.93;101536.25;5009471;28;20179;-49
2022/05/22 08:39:45;;;;;;;4.65;1.13;;;;;;;15.28;75.63;101541.94;5009755;28;20201;-49
2022/05/22 08:42:18;;;;;;;6.20;1.50;;;;;;;14.78;75.47;101542.41;5018503;28;20199;-49
2022/05/22 08:44:50;;;;;;;4.35;1.50;;;;;;;15.14;73.65;101529.09;5028391;28;20176;-48
2022/05/22 08:47:29;;;;;;;8.00;1.67;;;;;;;15.17;75.24;101537.03;5029468;28;20175;-47
2022/05/22 08:50:03;;;;;;;10.15;1.50;;;;;;;15.59;74.42;101530.56;5029636;28;20537;-47
2022/05/22 08:52:38;;;;;;;5.78;1.90;;;;;;;15.37;73.29;101529.81;5029350;28;20274;-48
2022/05/22 08:55:12;;;;;;;7.28;2.10;;;;;;;15.50;73.33;101531.00;5027387;28;20238;-47
2022/05/22 09:00:37;;;;;;;7.80;1.77;;;;;;;15.74;72.18;101541.59;5027917;28;20628;-47
2022/05/22 09:03:17;;;;;;;8.90;1.55;;;;;;;15.61;72.09;101544.88;5027238;28;20204;-47
2022/05/22 09:05:45;;;;;;;3.63;1.50;;;;;;;15.83;70.47;101533.03;5027740;28;20563;-48
2022/05/22 09:08:43;;;;;;;6.47;1.75;;;;;;;16.20;70.49;101537.53;5027897;28;20180;-49
2022/05/22 09:11:20;;;;;;;6.25;1.80;;;;;;;15.83;72.00;101536.66;5027203;28;20180;-47
2022/05/22 09:14:06;;;;;;;7.10;1.70;;;;;;;15.71;71.35;101537.22;5027500;28;20182;-48
2022/05/22 09:16:50;;;;;;;5.78;1.77;;;;;;;16.08;71.86;101543.53;5025590;28;20164;-47
2022/05/22 09:19:26;;;;;;;10.48;1.60;;;;;;;15.91;71.64;101530.84;5027839;28;20271;-48
2022/05/22 09:22:17;;;;;;;6.15;2.13;;;;;;;15.74;71.47;101538.91;5027601;28;20294;-47
2022/05/22 09:25:08;;;;;;;4.53;1.10;;;;;;;15.89;71.05;101529.19;5025967;28;20180;-47
2022/05/22 09:27:41;;;;;;;9.63;2.25;;;;;;;15.84;71.12;101538.38;5027601;28;20667;-48
2022/05/22 09:30:17;;;;;;;5.63;1.58;;;;;;;16.18;71.22;101514.19;5028207;28;20579;-48
2022/05/22 09:33:20;;;;;;;6.20;1.77;;;;;;;16.43;71.00;101517.41;5027674;28;20199;-47
2022/05/22 09:36:08;;;;;;;4.13;1.40;;;;;;;16.78;70.01;101524.63;5029411;28;20225;-47
2022/05/22 09:38:51;;;;;;;7.85;1.60;;;;;;;16.12;69.18;101526.22;5029479;28;20180;-48
2022/05/22 09:41:31;;;;;;;5.57;1.83;;;;;;;16.47;69.82;101537.06;5028417;28;20208;-47
2022/05/22 09:44:03;;;;;;;6.90;1.70;;;;;;;16.57;68.68;101521.22;5028907;28;20195;-48
2022/05/22 09:46:45;;;;;;;6.32;1.50;;;;;;;16.34;69.70;101527.84;5011182;28;20172;-46
2022/05/22 09:49:23;;;;;;;4.28;1.23;;;;;;;15.75;70.27;101529.88;5032454;28;20172;-46
2022/05/22 09:52:07;;;;;;;9.57;1.73;;;;;;;15.87;70.98;101531.94;5033179;28;20184;-47
2022/05/22 09:54:45;;;;;;;3.55;1.20;;;;;;;15.94;70.88;101546.94;5032368;28;20172;-46
2022/05/22 09:57:32;;;;;;;4.47;1.17;;;;;;;16.05;71.74;101544.56;5027723;28;20187;-47
2022/05/22 10:00:24;;;;;;;6.00;1.48;;;;;;;15.59;71.90;101548.59;5030386;28;20598;-47
2022/05/22 10:03:03;;;;;;;4.10;1.35;;;;;;;15.98;70.26;101550.34;5023173;28;20581;-45
2022/05/22 10:05:41;;;;;;;5.18;1.20;;;;;;;15.73;68.84;101547.97;5031965;28;20551;-47
2022/05/22 10:08:25;;;;;;;3.97;1.52;;;;;;;15.76;69.50;101543.28;5031937;28;20172;-46
2022/05/22 10:11:04;;;;;;;7.40;1.60;;;;;;;15.78;70.35;101543.22;5032470;28;20223;-47
2022/05/22 10:13:32;;;;;;;5.00;1.48;;;;;;;15.89;69.37;101532.75;5032211;28;20172;-46
2022/05/22 10:16:07;;;;;;;5.47;1.30;;;;;;;15.98;69.01;101535.03;5032564;28;20176;-45
2022/05/22 10:19:02;;;;;;;6.00;1.38;;;;;;;16.03;69.73;101540.19;5032546;28;20171;-47
2022/05/22 10:21:45;;;;;;;16.27;2.15;;;;;;;16.13;71.40;101540.59;5009025;28;20254;-47
2022/05/22 10:24:20;;;;;;;20.52;2.35;;;;;;;15.83;71.21;101541.16;5032138;28;20167;-47
2022/05/22 10:27:22;;;;;;;8.45;1.73;;;;;;;15.03;74.74;101553.00;5031409;28;20182;-47
2022/05/22 10:29:58;;;;;;;10.93;1.52;;;;;;;14.71;76.72;101543.63;5012501;28;20639;-48
2022/05/22 10:33:06;;;;;;;9.38;1.88;;;;;;;14.97;76.25;101547.88;5012703;28;20251;-47
2022/05/22 10:35:59;;;;;;;7.68;2.03;;;;;;;14.87;77.46;101555.50;4973681;28;20189;-48
2022/05/22 10:38:37;;;;;;;12.50;2.38;;;;;;;14.67;77.24;101559.09;5012447;28;20436;-47
2022/05/22 10:44:06;;;;;;;6.80;1.52;;;;;;;14.80;78.54;101552.22;5011388;28;20275;-46
2022/05/22 10:46:49;;;;;;;9.05;2.10;;;;;;;15.17;76.84;101545.13;5012388;28;20161;-47
2022/05/22 10:49:16;;;;;;;6.18;2.00;;;;;;;15.13;76.96;101538.13;5011887;28;20188;-47
2022/05/22 10:51:41;;;;;;;5.65;1.40;;;;;;;15.22;76.53;101540.41;5012284;28;20192;-47
2022/05/22 10:54:07;;;;;;;5.70;1.30;;;;;;;15.51;76.22;101535.47;5011655;28;20169;-48
2022/05/22 10:56:34;;;;;;;6.03;1.45;;;;;;;15.30;75.12;101541.88;5012036;28;20209;-47
2022/05/22 10:59:06;;;;;;;5.07;1.52;;;;;;;15.33;75.41;101536.34;5010564;28;20252;-47
2022/05/22 11:01:37;;;;;;;7.50;1.55;;;;;;;15.11;75.27;101548.13;5011571;28;20213;-45
2022/05/22 11:04:10;;;;;;;3.30;1.50;;;;;;;15.42;73.71;101552.09;5011585;28;20678;-46
2022/05/22 11:06:57;;;;;;;3.22;1.45;;;;;;;15.50;74.49;101535.53;5011903;28;20644;-46
2022/05/22 11:09:24;;;;;;;4.38;1.60;;;;;;;15.86;72.71;101532.91;5011441;28;20683;-47
2022/05/22 11:11:50;;;;;;;7.93;2.03;;;;;;;16.23;71.46;101525.66;5011866;28;20664;-47
2022/05/22 11:14:20;;;;;;;4.35;1.23;;;;;;;16.91;68.74;101528.47;5011266;28;20180;-48
2022/05/22 11:16:47;;;;;;;4.93;1.60;;;;;;;17.19;68.10;101529.69;5011710;28;20181;-49
2022/05/22 11:19:24;;;;;;;4.63;1.52;;;;;;;16.84;68.09;101527.91;5011519;28;20574;-47
2022/05/22 11:22:16;;;;;;;4.38;1.20;;;;;;;15.99;66.88;101523.25;5011497;28;20200;-47
2022/05/22 11:25:00;;;;;;;9.43;1.73;;;;;;;16.84;69.73;101517.09;5011194;28;20169;-45
2022/05/22 11:27:47;;;;;;;7.03;1.80;;;;;;;16.18;68.41;101523.22;5013566;28;20240;-45
2022/05/22 11:30:50;;;;;;;4.30;1.65;;;;;;;16.14;68.51;101516.19;5031230;28;20168;-46
2022/05/22 11:33:34;;;;;;;6.63;1.52;;;;;;;16.83;67.14;101511.75;5030045;28;20211;-47
2022/05/22 11:36:38;;;;;;;6.40;1.55;;;;;;;16.74;65.17;101507.66;5030836;28;20230;-46
2022/05/22 11:39:14;;;;;;;6.22;1.50;;;;;;;16.67;64.83;101498.13;5031078;28;20188;-45
2022/05/22 11:42:11;;;;;;;5.90;1.20;;;;;;;18.06;63.48;101492.22;5031307;28;20207;-47
2022/05/22 11:44:56;;;;;;;4.25;1.30;;;;;;;17.89;62.70;101501.34;5030367;28;20188;-48
2022/05/22 11:47:49;;;;;;;4.32;1.33;;;;;;;18.06;60.32;101496.75;5030839;28;20609;-46
2022/05/22 11:50:21;;;;;;;3.60;1.13;;;;;;;18.14;59.56;101490.88;5030889;28;20259;-47
2022/05/22 11:52:55;;;;;;;3.47;1.10;;;;;;;16.65;61.43;101494.63;5030236;28;20196;-47
2022/05/22 11:55:29;;;;;;;4.88;1.33;;;;;;;16.50;64.42;101495.44;5030421;28;20186;-47
2022/05/22 11:58:13;;;;;;;7.32;1.42;;;;;;;16.82;63.65;101496.47;5030214;28;20217;-47
2022/05/22 12:01:23;;;;;;;6.72;1.55;;;;;;;17.19;61.72;101484.50;5030138;28;20207;-47
2022/05/22 12:04:03;;;;;;;8.30;1.50;;;;;;;16.73;62.33;101478.88;4982331;28;20186;-45